Sweetwater, Nevada
Current Conditions -  °F | °C
As of 3:52 AM on Thursday 27 Nov 2014 (Local Time) from KBAN Reporting Station
Clear Clear  
Wind Chill: 32°   Ceiling: Unl
Heat Index: 32°   Visibility: NA
Dew Point: 20°   Wind: 0mph
Humidity: 61%   Direction: NA
Pressure: 30.38"   Gusts: NA
Location:  38.7596°N, 119.34°W
Report Text: KBAN 271152Z AUTO 00000KT CLR 00/M07 A3038 RMK AO2 SLP253 T00001067 10083 21022 58010 FZRANO $
Loading
Personal Weather Stations






























Interactive Weather Map New forecast layout! Learn more

10-Day Weather Forecast

Advertisements
Track Severe Weather on mobile